Time,TemperatureF,DewpointF,PressureIn,WindDirection,WindDirectionDegrees,WindSpeedMPH,WindSpeedGustMPH,Humidity,HourlyPrecipIn,Conditions,Clouds,dailyrainin,SoftwareType,DateUTC
2013-07-26 00:00:00,56.2,54.2,30.17,West,280,1.0,1.0,93,0.00,,OVC,0.00,VWS V14.01,2013-07-26 04:00:00,
2013-07-26 00:01:00,56.2,54.2,30.17,North,356,0.0,0.0,93,0.00,,CLR,0.00,VWS V14.01,2013-07-26 04:01:00,
2013-07-26 00:02:00,56.2,54.2,30.17,North,356,0.0,0.0,93,0.00,,CLR,0.00,VWS V14.01,2013-07-26 04:02:00,
2013-07-26 00:03:00,56.2,54.2,30.17,West,280,0.0,1.0,93,0.00,,CLR,0.00,VWS V14.01,2013-07-26 04:03:00,
2013-07-26 00:08:00,56.2,54.2,30.17,West,278,0.0,1.0,93,0.00,,CLR,0.00,VWS V14.01,2013-07-26 04:08:00,
2013-07-26 00:13:00,56.2,54.2,30.17,West,274,0.0,1.0,93,0.00,,CLR,0.00,VWS V14.01,2013-07-26 04:13:00,
2013-07-26 00:18:00,56.1,54.1,30.17,West,274,1.0,1.0,93,0.00,,CLR,0.00,VWS V14.01,2013-07-26 04:18:00,
2013-07-26 00:24:00,56.0,54.0,30.17,West,266,0.0,1.0,93,0.00,,CLR,0.00,VWS V14.01,2013-07-26 04:24:00,
2013-07-26 00:29:00,55.9,53.9,30.17,West,266,0.0,1.0,93,0.00,,CLR,0.00,VWS V14.01,2013-07-26 04:29:00,
2013-07-26 00:30:00,55.8,53.8,30.17,West,266,0.0,1.0,93,0.00,,OVC,0.00,VWS V14.01,2013-07-26 04:30:00,
2013-07-26 00:34:00,55.7,53.7,30.17,West,259,0.0,0.0,93,0.00,,CLR,0.00,VWS V14.01,2013-07-26 04:34:00,
2013-07-26 00:39:00,55.7,54.0,30.17,West,259,0.0,0.0,94,0.00,,CLR,0.00,VWS V14.01,2013-07-26 04:39:00,
2013-07-26 00:44:00,55.6,53.9,30.17,West,267,0.0,0.0,94,0.00,,CLR,0.00,VWS V14.01,2013-07-26 04:44:00,
2013-07-26 00:49:00,55.5,53.8,30.17,WNW,292,0.0,1.0,94,0.00,,CLR,0.00,VWS V14.01,2013-07-26 04:49:00,
2013-07-26 00:54:00,55.5,53.8,30.17,WNW,291,0.0,1.0,94,0.00,,CLR,0.00,VWS V14.01,2013-07-26 04:54:00,
2013-07-26 00:59:00,55.5,53.8,30.17,West,276,0.0,1.0,94,0.00,,CLR,0.00,VWS V14.01,2013-07-26 04:59:00,
2013-07-26 01:00:00,55.4,53.7,30.17,West,275,0.0,1.0,94,0.00,,OVC,0.00,VWS V14.01,2013-07-26 05:00:00,
2013-07-26 01:04:00,55.4,53.7,30.17,West,275,0.0,0.0,94,0.00,,CLR,0.00,VWS V14.01,2013-07-26 05:04:00,
2013-07-26 01:09:00,55.3,53.6,30.17,West,275,0.0,1.0,94,0.00,,CLR,0.00,VWS V14.01,2013-07-26 05:09:00,
2013-07-26 01:14:00,55.2,53.5,30.17,West,275,0.0,1.0,94,0.00,,CLR,0.00,VWS V14.01,2013-07-26 05:14:00,
2013-07-26 01:19:00,55.0,53.3,30.17,West,276,0.0,1.0,94,0.00,,CLR,0.00,VWS V14.01,2013-07-26 05:19:00,
2013-07-26 01:24:00,54.9,53.2,30.16,West,275,0.0,1.0,94,0.00,,CLR,0.00,VWS V14.01,2013-07-26 05:24:00,
2013-07-26 01:29:00,54.7,53.0,30.17,West,275,0.0,1.0,94,0.00,,CLR,0.00,VWS V14.01,2013-07-26 05:29:00,
2013-07-26 01:30:00,54.7,53.0,30.16,West,276,0.0,1.0,94,0.00,,OVC,0.00,VWS V14.01,2013-07-26 05:30:00,
2013-07-26 01:34:00,54.7,53.0,30.16,West,277,0.0,0.0,94,0.00,,CLR,0.00,VWS V14.01,2013-07-26 05:34:00,
2013-07-26 01:39:00,54.5,52.8,30.16,West,277,0.0,0.0,94,0.00,,CLR,0.00,VWS V14.01,2013-07-26 05:39:00,
2013-07-26 01:44:00,54.5,53.1,30.17,West,276,0.0,0.0,95,0.00,,CLR,0.00,VWS V14.01,2013-07-26 05:44:00,
2013-07-26 01:49:00,54.3,52.6,30.16,West,276,0.0,0.0,94,0.00,,CLR,0.00,VWS V14.01,2013-07-26 05:49:00,
2013-07-26 01:55:00,54.0,52.3,30.16,West,277,0.0,0.0,94,0.00,,CLR,0.00,VWS V14.01,2013-07-26 05:55:00,
2013-07-26 02:00:00,53.5,51.8,30.16,West,276,0.0,0.0,94,0.00,,CLR,0.00,VWS V14.01,2013-07-26 06:00:00,
2013-07-26 02:05:00,53.4,52.0,30.16,West,276,0.0,0.0,95,0.00,,CLR,0.00,VWS V14.01,2013-07-26 06:05:00,
2013-07-26 02:10:00,53.7,52.6,30.16,West,275,0.0,0.0,96,0.00,,CLR,0.00,VWS V14.01,2013-07-26 06:10:00,
2013-07-26 02:15:00,53.8,52.7,30.16,West,275,0.0,0.0,96,0.00,,CLR,0.00,VWS V14.01,2013-07-26 06:15:00,
2013-07-26 02:20:00,53.7,52.3,30.16,West,275,0.0,0.0,95,0.00,,CLR,0.00,VWS V14.01,2013-07-26 06:20:00,
2013-07-26 02:25:00,53.5,52.1,30.16,West,276,0.0,0.0,95,0.00,,CLR,0.00,VWS V14.01,2013-07-26 06:25:00,
2013-07-26 02:30:00,53.6,52.5,30.16,West,275,0.0,0.0,96,0.00,,CLR,0.00,VWS V14.01,2013-07-26 06:30:00,
2013-07-26 02:35:00,53.6,52.5,30.15,West,275,0.0,0.0,96,0.00,,CLR,0.00,VWS V14.01,2013-07-26 06:35:00,
2013-07-26 02:40:00,53.2,51.8,30.15,West,276,0.0,0.0,95,0.00,,CLR,0.00,VWS V14.01,2013-07-26 06:40:00,
2013-07-26 02:45:00,53.0,51.9,30.15,West,275,0.0,0.0,96,0.00,,CLR,0.00,VWS V14.01,2013-07-26 06:45:00,
2013-07-26 02:51:00,53.2,52.1,30.15,West,275,0.0,0.0,96,0.00,,CLR,0.00,VWS V14.01,2013-07-26 06:51:00,
2013-07-26 02:56:00,53.4,52.3,30.15,West,275,0.0,0.0,96,0.00,,CLR,0.00,VWS V14.01,2013-07-26 06:56:00,
2013-07-26 03:00:00,53.2,52.1,30.15,West,277,0.0,0.0,96,0.00,,OVC,0.00,VWS V14.01,2013-07-26 07:00:00,
2013-07-26 03:01:00,53.2,52.1,30.15,West,275,0.0,0.0,96,0.00,,CLR,0.00,VWS V14.01,2013-07-26 07:01:00,
2013-07-26 03:06:00,53.3,52.2,30.15,West,276,0.0,0.0,96,0.00,,CLR,0.00,VWS V14.01,2013-07-26 07:06:00,
2013-07-26 03:11:00,53.1,52.0,30.14,West,275,0.0,0.0,96,0.00,,CLR,0.00,VWS V14.01,2013-07-26 07:11:00,
2013-07-26 03:16:00,52.8,51.7,30.14,West,277,0.0,0.0,96,0.00,,CLR,0.00,VWS V14.01,2013-07-26 07:16:00,
2013-07-26 03:21:00,53.0,51.9,30.14,West,275,0.0,0.0,96,0.00,,CLR,0.00,VWS V14.01,2013-07-26 07:21:00,
2013-07-26 03:26:00,53.1,52.0,30.15,West,275,0.0,0.0,96,0.00,,CLR,0.00,VWS V14.01,2013-07-26 07:26:00,
2013-07-26 03:30:00,52.8,51.7,30.15,West,276,0.0,0.0,96,0.00,,OVC,0.00,VWS V14.01,2013-07-26 07:30:00,
2013-07-26 03:31:00,52.8,51.7,30.15,West,275,0.0,0.0,96,0.00,,CLR,0.00,VWS V14.01,2013-07-26 07:31:00,
2013-07-26 03:37:00,52.6,51.5,30.15,West,275,0.0,0.0,96,0.00,,CLR,0.00,VWS V14.01,2013-07-26 07:37:00,
2013-07-26 03:42:00,51.8,50.4,30.15,West,275,0.0,0.0,95,0.00,,CLR,0.00,VWS V14.01,2013-07-26 07:42:00,
2013-07-26 03:47:00,51.6,50.5,30.15,West,276,0.0,0.0,96,0.00,,CLR,0.00,VWS V14.01,2013-07-26 07:47:00,
2013-07-26 03:52:00,51.6,50.5,30.15,West,275,0.0,0.0,96,0.00,,CLR,0.00,VWS V14.01,2013-07-26 07:52:00,
2013-07-26 03:57:00,51.7,50.6,30.16,West,275,0.0,0.0,96,0.00,,CLR,0.00,VWS V14.01,2013-07-26 07:57:00,
2013-07-26 04:00:00,52.1,51.3,30.16,West,277,0.0,0.0,97,0.00,,OVC,0.00,VWS V14.01,2013-07-26 08:00:00,
2013-07-26 04:02:00,52.1,51.3,30.15,West,275,0.0,0.0,97,0.00,,CLR,0.00,VWS V14.01,2013-07-26 08:02:00,
2013-07-26 04:08:00,52.2,51.4,30.16,West,274,0.0,0.0,97,0.00,,CLR,0.00,VWS V14.01,2013-07-26 08:08:00,
2013-07-26 04:13:00,52.1,51.3,30.16,West,274,0.0,0.0,97,0.00,,CLR,0.00,VWS V14.01,2013-07-26 08:13:00,
2013-07-26 04:18:00,52.3,51.5,30.16,West,274,0.0,0.0,97,0.00,,CLR,0.00,VWS V14.01,2013-07-26 08:18:00,
2013-07-26 04:23:00,52.5,51.7,30.16,West,274,0.0,0.0,97,0.00,,CLR,0.00,VWS V14.01,2013-07-26 08:23:00,
2013-07-26 04:28:00,52.6,51.8,30.15,West,274,0.0,0.0,97,0.00,,CLR,0.00,VWS V14.01,2013-07-26 08:28:00,
2013-07-26 04:30:00,52.7,51.9,30.15,West,274,0.0,0.0,97,0.00,,OVC,0.00,VWS V14.01,2013-07-26 08:30:00,
2013-07-26 04:33:00,52.7,51.9,30.15,West,274,0.0,0.0,97,0.00,,CLR,0.00,VWS V14.01,2013-07-26 08:33:00,
2013-07-26 04:38:00,52.7,51.9,30.15,West,274,0.0,0.0,97,0.00,,CLR,0.00,VWS V14.01,2013-07-26 08:38:00,
2013-07-26 04:43:00,52.6,51.8,30.15,West,274,0.0,0.0,97,0.00,,CLR,0.00,VWS V14.01,2013-07-26 08:43:00,
2013-07-26 04:49:00,52.5,51.7,30.15,West,270,0.0,0.0,97,0.00,,CLR,0.00,VWS V14.01,2013-07-26 08:49:00,
2013-07-26 04:54:00,52.4,51.3,30.15,West,262,0.0,0.0,96,0.00,,CLR,0.00,VWS V14.01,2013-07-26 08:54:00,
2013-07-26 04:59:00,52.1,51.0,30.15,West,264,0.0,0.0,96,0.00,,CLR,0.00,VWS V14.01,2013-07-26 08:59:00,
2013-07-26 05:00:00,52.0,50.9,30.15,West,264,0.0,0.0,96,0.00,,OVC,0.00,VWS V14.01,2013-07-26 09:00:00,
2013-07-26 05:04:00,52.0,51.2,30.15,West,264,0.0,0.0,97,0.00,,CLR,0.00,VWS V14.01,2013-07-26 09:04:00,
2013-07-26 05:09:00,52.1,51.3,30.15,West,264,0.0,0.0,97,0.00,,CLR,0.00,VWS V14.01,2013-07-26 09:09:00,
2013-07-26 05:14:00,52.2,51.4,30.15,West,264,0.0,0.0,97,0.00,,CLR,0.00,VWS V14.01,2013-07-26 09:14:00,
2013-07-26 05:19:00,52.2,51.4,30.15,West,259,0.0,0.0,97,0.00,,CLR,0.00,VWS V14.01,2013-07-26 09:19:00,
2013-07-26 05:24:00,51.9,50.8,30.15,WSW,258,0.0,0.0,96,0.00,,CLR,0.00,VWS V14.01,2013-07-26 09:24:00,
2013-07-26 05:29:00,51.7,50.6,30.15,West,261,0.0,0.0,96,0.00,,CLR,0.00,VWS V14.01,2013-07-26 09:29:00,
2013-07-26 05:30:00,51.7,50.6,30.15,West,271,0.0,0.0,96,0.00,,OVC,0.00,VWS V14.01,2013-07-26 09:30:00,
2013-07-26 05:35:00,51.7,50.9,30.15,West,271,0.0,0.0,97,0.00,,CLR,0.00,VWS V14.01,2013-07-26 09:35:00,
2013-07-26 05:40:00,51.8,51.0,30.15,West,271,0.0,0.0,97,0.00,,CLR,0.00,VWS V14.01,2013-07-26 09:40:00,
2013-07-26 05:45:00,52.0,51.2,30.15,West,271,0.0,0.0,97,0.00,,,0.00,VWS V14.01,2013-07-26 09:45:00,
2013-07-26 05:50:00,52.0,51.2,30.15,West,271,0.0,0.0,97,0.00,,,0.00,VWS V14.01,2013-07-26 09:50:00,
2013-07-26 05:55:00,51.9,51.1,30.15,West,271,0.0,0.0,97,0.00,,,0.00,VWS V14.01,2013-07-26 09:55:00,
2013-07-26 06:00:00,51.9,51.1,30.15,West,268,0.0,0.0,97,0.00,,,0.00,VWS V14.01,2013-07-26 10:00:00,
2013-07-26 06:05:00,51.9,51.1,30.15,West,269,0.0,0.0,97,0.00,,BKN001,0.00,VWS V14.01,2013-07-26 10:05:00,
2013-07-26 06:10:00,51.9,51.1,30.15,West,269,0.0,0.0,97,0.00,,BKN001,0.00,VWS V14.01,2013-07-26 10:10:00,
2013-07-26 06:15:00,51.9,51.1,30.15,West,269,0.0,0.0,97,0.00,,BKN001,0.00,VWS V14.01,2013-07-26 10:15:00,
2013-07-26 06:20:00,51.8,51.0,30.16,West,268,0.0,0.0,97,0.00,,BKN001,0.00,VWS V14.01,2013-07-26 10:20:00,
2013-07-26 06:25:00,51.6,50.8,30.16,West,268,0.0,0.0,97,0.00,,BKN001,0.00,VWS V14.01,2013-07-26 10:25:00,
2013-07-26 06:30:00,51.6,50.8,30.16,West,268,0.0,0.0,97,0.00,,BKN001,0.00,VWS V14.01,2013-07-26 10:30:00,
2013-07-26 06:36:00,51.8,51.0,30.16,West,269,0.0,0.0,97,0.00,,BKN001,0.00,VWS V14.01,2013-07-26 10:36:00,
2013-07-26 06:41:00,52.0,51.2,30.16,West,269,0.0,0.0,97,0.00,,BKN001,0.00,VWS V14.01,2013-07-26 10:41:00,
2013-07-26 06:46:00,52.1,51.3,30.16,West,268,0.0,0.0,97,0.00,,SCT001,0.00,VWS V14.01,2013-07-26 10:46:00,
2013-07-26 06:51:00,52.2,51.4,30.16,West,270,0.0,0.0,97,0.00,,SCT001,0.00,VWS V14.01,2013-07-26 10:51:00,
2013-07-26 06:57:00,52.5,51.7,30.16,West,270,0.0,0.0,97,0.00,,SCT001,0.00,VWS V14.01,2013-07-26 10:57:00,
2013-07-26 07:00:00,53.0,52.2,30.16,WSW,253,0.0,0.0,97,0.00,,OVC,0.00,VWS V14.01,2013-07-26 11:00:00,
2013-07-26 07:02:00,52.9,52.1,30.16,WSW,253,0.0,0.0,97,0.00,,SCT001,0.00,VWS V14.01,2013-07-26 11:02:00,
2013-07-26 07:07:00,53.4,52.6,30.16,WSW,257,0.0,0.0,97,0.00,,SCT001,0.00,VWS V14.01,2013-07-26 11:07:00,
2013-07-26 07:12:00,53.9,52.8,30.16,WSW,257,0.0,0.0,96,0.00,,SCT001,0.00,VWS V14.01,2013-07-26 11:12:00,
2013-07-26 07:17:00,54.7,53.9,30.16,WSW,257,0.0,0.0,97,0.00,,SCT001,0.00,VWS V14.01,2013-07-26 11:17:00,
2013-07-26 07:22:00,55.4,54.3,30.16,WSW,257,0.0,0.0,96,0.00,,SCT001,0.00,VWS V14.01,2013-07-26 11:22:00,
2013-07-26 07:27:00,55.9,54.5,30.16,West,273,1.0,1.0,95,0.00,,SCT001,0.00,VWS V14.01,2013-07-26 11:27:00,
2013-07-26 07:30:00,56.5,54.5,30.16,WSW,244,1.0,2.0,93,0.00,,OVC,0.00,VWS V14.01,2013-07-26 11:30:00,
2013-07-26 07:32:00,56.4,54.7,30.16,WSW,242,1.0,2.0,94,0.00,,SCT001,0.00,VWS V14.01,2013-07-26 11:32:00,
2013-07-26 07:37:00,56.8,54.5,30.16,WSW,253,2.0,2.0,92,0.00,,SCT001,0.00,VWS V14.01,2013-07-26 11:37:00,
2013-07-26 07:43:00,56.9,54.0,30.16,WSW,248,1.0,2.0,90,0.00,,SCT001,0.00,VWS V14.01,2013-07-26 11:43:00,
2013-07-26 07:48:00,57.0,54.1,30.16,WSW,246,0.0,2.0,90,0.00,,SCT001,0.00,VWS V14.01,2013-07-26 11:48:00,
2013-07-26 07:53:00,57.4,54.8,30.16,WSW,249,1.0,2.0,91,0.00,,SCT001,0.00,VWS V14.01,2013-07-26 11:53:00,
2013-07-26 07:58:00,57.8,54.9,30.16,WSW,250,1.0,2.0,90,0.00,,SCT001,0.00,VWS V14.01,2013-07-26 11:58:00,
2013-07-26 08:00:00,57.9,55.0,30.16,WSW,248,1.0,2.0,90,0.00,,OVC,0.00,VWS V14.01,2013-07-26 12:00:00,
2013-07-26 08:03:00,57.9,55.0,30.16,WSW,247,1.0,1.0,90,0.00,,SCT001,0.00,VWS V14.01,2013-07-26 12:03:00,
2013-07-26 08:08:00,58.4,55.5,30.16,WSW,256,1.0,1.0,90,0.00,,SCT001,0.00,VWS V14.01,2013-07-26 12:08:00,
2013-07-26 08:13:00,59.2,56.3,30.16,West,259,0.0,1.0,90,0.00,,SCT001,0.00,VWS V14.01,2013-07-26 12:13:00,
2013-07-26 08:18:00,59.9,56.3,30.16,WSW,252,0.0,1.0,88,0.00,,SCT001,0.00,VWS V14.01,2013-07-26 12:18:00,
2013-07-26 08:24:00,60.7,56.8,30.16,West,259,0.0,1.0,87,0.00,,SCT001,0.00,VWS V14.01,2013-07-26 12:24:00,
2013-07-26 08:29:00,61.1,56.9,30.16,WSW,250,0.0,1.0,86,0.00,,SCT001,0.00,VWS V14.01,2013-07-26 12:29:00,
2013-07-26 08:30:00,61.5,57.3,30.16,WSW,245,0.0,1.0,86,0.00,,OVC,0.00,VWS V14.01,2013-07-26 12:30:00,
2013-07-26 08:34:00,61.6,57.4,30.16,WSW,244,0.0,0.0,86,0.00,,SCT001,0.00,VWS V14.01,2013-07-26 12:34:00,
2013-07-26 08:39:00,62.2,58.3,30.16,WSW,256,0.0,0.0,87,0.00,,SCT001,0.00,VWS V14.01,2013-07-26 12:39:00,
2013-07-26 08:44:00,62.7,57.8,30.16,WSW,245,0.0,0.0,84,0.00,,SCT001,0.00,VWS V14.01,2013-07-26 12:44:00,
2013-07-26 08:49:00,63.5,58.6,30.16,WSW,245,0.0,0.0,84,0.00,,SCT001,0.00,VWS V14.01,2013-07-26 12:49:00,
2013-07-26 08:54:00,64.5,59.2,30.16,WSW,257,0.0,0.0,83,0.00,,SCT001,0.00,VWS V14.01,2013-07-26 12:54:00,
2013-07-26 08:59:00,65.6,59.3,30.16,WSW,256,0.0,0.0,80,0.00,,SCT001,0.00,VWS V14.01,2013-07-26 12:59:00,
2013-07-26 09:00:00,66.2,59.2,30.16,NNE,20,0.0,0.0,78,0.00,,OVC,0.00,VWS V14.01,2013-07-26 13:00:00,
2013-07-26 09:05:00,66.6,59.5,30.16,WSW,252,0.0,0.0,78,0.00,,CLR,0.00,VWS V14.01,2013-07-26 13:05:00,
2013-07-26 09:10:00,66.8,59.0,30.16,NNW,344,2.0,2.0,76,0.00,,CLR,0.00,VWS V14.01,2013-07-26 13:10:00,
2013-07-26 09:15:00,66.9,59.1,30.16,NW,322,0.0,4.0,76,0.00,,CLR,0.00,VWS V14.01,2013-07-26 13:15:00,
2013-07-26 09:20:00,67.4,59.2,30.16,WSW,243,1.0,4.0,75,0.00,,CLR,0.00,VWS V14.01,2013-07-26 13:20:00,
2013-07-26 09:25:00,67.9,59.7,30.16,West,263,0.0,4.0,75,0.00,,CLR,0.00,VWS V14.01,2013-07-26 13:25:00,
2013-07-26 09:30:00,68.2,59.6,30.16,North,360,2.0,4.0,74,0.00,,CLR,0.00,VWS V14.01,2013-07-26 13:30:00,
2013-07-26 09:35:00,68.4,59.0,30.15,West,264,1.0,4.0,72,0.00,,CLR,0.00,VWS V14.01,2013-07-26 13:35:00,
2013-07-26 09:40:00,68.5,59.5,30.15,NNE,33,2.0,5.0,73,0.00,,CLR,0.00,VWS V14.01,2013-07-26 13:40:00,
2013-07-26 09:45:00,68.8,60.2,30.15,NW,312,3.0,5.0,74,0.00,,CLR,0.00,VWS V14.01,2013-07-26 13:45:00,
2013-07-26 09:50:00,69.0,59.6,30.15,South,179,1.0,5.0,72,0.00,,CLR,0.00,VWS V14.01,2013-07-26 13:50:00,
2013-07-26 09:55:00,69.4,58.8,30.15,NW,314,2.0,5.0,69,0.00,,CLR,0.00,VWS V14.01,2013-07-26 13:55:00,
2013-07-26 10:00:00,69.6,59.0,30.15,WSW,242,2.0,5.0,69,0.00,,CLR,0.00,VWS V14.01,2013-07-26 14:00:00,
2013-07-26 10:06:00,69.9,59.7,30.15,North,356,2.0,2.0,70,0.00,,CLR,0.00,VWS V14.01,2013-07-26 14:06:00,
2013-07-26 10:11:00,69.7,58.7,30.15,North,354,0.0,5.0,68,0.00,,CLR,0.00,VWS V14.01,2013-07-26 14:11:00,
2013-07-26 10:16:00,69.7,58.3,30.15,North,8,0.0,5.0,67,0.00,,CLR,0.00,VWS V14.01,2013-07-26 14:16:00,
2013-07-26 10:21:00,69.6,57.8,30.15,ENE,69,2.0,5.0,66,0.00,,CLR,0.00,VWS V14.01,2013-07-26 14:21:00,
2013-07-26 10:26:00,70.0,58.5,30.15,WSW,245,1.0,5.0,67,0.00,,CLR,0.00,VWS V14.01,2013-07-26 14:26:00,
2013-07-26 10:30:00,69.8,58.4,30.15,North,6,1.0,6.0,67,0.00,,OVC,0.00,VWS V14.01,2013-07-26 14:30:00,
2013-07-26 10:31:00,69.7,57.8,30.15,ESE,112,1.0,6.0,66,0.00,,CLR,0.00,VWS V14.01,2013-07-26 14:31:00,
2013-07-26 10:36:00,69.8,57.5,30.15,SE,142,2.0,2.0,65,0.00,,CLR,0.00,VWS V14.01,2013-07-26 14:36:00,
2013-07-26 10:42:00,70.2,58.7,30.15,SE,136,1.0,2.0,67,0.00,,CLR,0.00,VWS V14.01,2013-07-26 14:42:00,
2013-07-26 10:47:00,70.8,59.7,30.15,NNW,338,2.0,3.0,68,0.00,,CLR,0.00,VWS V14.01,2013-07-26 14:47:00,
2013-07-26 10:52:00,71.0,58.7,30.15,NW,315,1.0,4.0,65,0.00,,CLR,0.00,VWS V14.01,2013-07-26 14:52:00,
2013-07-26 10:57:00,70.9,58.1,30.14,East,82,1.0,4.0,64,0.00,,CLR,0.00,VWS V14.01,2013-07-26 14:57:00,
2013-07-26 11:00:00,71.2,58.8,30.14,NNW,330,1.0,4.0,65,0.00,,OVC,0.00,VWS V14.01,2013-07-26 15:00:00,
2013-07-26 11:02:00,71.2,58.4,30.14,WNW,291,0.0,4.0,64,0.00,,CLR,0.00,VWS V14.01,2013-07-26 15:02:00,
2013-07-26 11:07:00,71.6,59.2,30.14,NNW,333,2.0,3.0,65,0.00,,CLR,0.00,VWS V14.01,2013-07-26 15:07:00,
2013-07-26 11:12:00,71.5,59.6,30.14,WSW,248,0.0,3.0,66,0.00,,CLR,0.00,VWS V14.01,2013-07-26 15:12:00,
2013-07-26 11:17:00,71.8,59.0,30.14,SW,215,0.0,3.0,64,0.00,,CLR,0.00,VWS V14.01,2013-07-26 15:17:00,
2013-07-26 11:22:00,71.6,58.3,30.14,WNW,302,2.0,3.0,63,0.00,,CLR,0.00,VWS V14.01,2013-07-26 15:22:00,
2013-07-26 11:27:00,71.1,57.9,30.14,West,274,0.0,3.0,63,0.00,,CLR,0.00,VWS V14.01,2013-07-26 15:27:00,
2013-07-26 11:30:00,71.4,59.0,30.14,WSW,256,0.0,3.0,65,0.00,,OVC,0.00,VWS V14.01,2013-07-26 15:30:00,
2013-07-26 11:32:00,71.3,58.5,30.14,WSW,256,1.0,3.0,64,0.00,,CLR,0.00,VWS V14.01,2013-07-26 15:32:00,
2013-07-26 11:37:00,72.0,59.2,30.14,WNW,282,1.0,2.0,64,0.00,,CLR,0.00,VWS V14.01,2013-07-26 15:37:00,
2013-07-26 11:43:00,72.0,56.0,30.14,NE,43,1.0,5.0,57,0.00,,CLR,0.00,VWS V14.01,2013-07-26 15:43:00,
2013-07-26 11:48:00,71.9,55.9,30.14,SW,225,0.0,5.0,57,0.00,,CLR,0.00,VWS V14.01,2013-07-26 15:48:00,
2013-07-26 11:53:00,73.0,58.8,30.14,ENE,69,1.0,5.0,61,0.00,,CLR,0.00,VWS V14.01,2013-07-26 15:53:00,
2013-07-26 11:58:00,73.6,58.4,30.14,North,6,1.0,5.0,59,0.00,,CLR,0.00,VWS V14.01,2013-07-26 15:58:00,
2013-07-26 12:00:00,73.3,59.0,30.14,West,274,2.0,5.0,61,0.00,,OVC,0.00,VWS V14.01,2013-07-26 16:00:00,
2013-07-26 12:03:00,73.2,57.5,30.14,West,266,1.0,2.0,58,0.00,,CLR,0.00,VWS V14.01,2013-07-26 16:03:00,
2013-07-26 12:08:00,72.6,56.0,30.14,SW,233,1.0,3.0,56,0.00,,CLR,0.00,VWS V14.01,2013-07-26 16:08:00,
2013-07-26 12:13:00,73.5,60.2,30.13,WSW,248,2.0,3.0,63,0.00,,CLR,0.00,VWS V14.01,2013-07-26 16:13:00,
2013-07-26 12:18:00,72.8,55.2,30.14,WNW,290,0.0,5.0,54,0.00,,CLR,0.00,VWS V14.01,2013-07-26 16:18:00,
2013-07-26 12:19:00,72.8,56.7,30.13,NW,311,1.0,5.0,57,0.00,,CLR,0.00,VWS V14.01,2013-07-26 16:19:00,
2013-07-26 12:25:00,73.2,56.6,30.13,NNE,33,0.0,5.0,56,0.00,,CLR,0.00,VWS V14.01,2013-07-26 16:25:00,
2013-07-26 12:30:00,73.8,57.6,30.13,West,270,1.0,5.0,57,0.00,,CLR,0.00,VWS V14.01,2013-07-26 16:30:00,
2013-07-26 12:36:00,73.9,58.2,30.13,SW,232,2.0,2.0,58,0.00,,CLR,0.00,VWS V14.01,2013-07-26 16:36:00,
2013-07-26 12:41:00,73.5,58.8,30.12,SW,226,2.0,3.0,60,0.00,,CLR,0.00,VWS V14.01,2013-07-26 16:41:00,
2013-07-26 12:46:00,74.1,59.8,30.12,ESE,122,0.0,3.0,61,0.00,,CLR,0.00,VWS V14.01,2013-07-26 16:46:00,
2013-07-26 12:51:00,74.6,58.4,30.12,NNW,345,1.0,4.0,57,0.00,,CLR,0.00,VWS V14.01,2013-07-26 16:51:00,
2013-07-26 12:56:00,74.1,57.4,30.12,NW,325,0.0,4.0,56,0.00,,CLR,0.00,VWS V14.01,2013-07-26 16:56:00,
2013-07-26 13:00:00,74.4,57.7,30.12,WSW,248,2.0,5.0,56,0.00,,OVC,0.00,VWS V14.01,2013-07-26 17:00:00,
2013-07-26 13:01:00,74.4,57.2,30.12,NW,317,3.0,5.0,55,0.00,,CLR,0.00,VWS V14.01,2013-07-26 17:01:00,
2013-07-26 13:07:00,73.8,56.6,30.12,West,273,2.0,5.0,55,0.00,,CLR,0.00,VWS V14.01,2013-07-26 17:07:00,
2013-07-26 13:12:00,73.6,56.5,30.12,WSW,246,2.0,5.0,55,0.00,,CLR,0.00,VWS V14.01,2013-07-26 17:12:00,
2013-07-26 13:17:00,73.5,56.9,30.12,West,269,1.0,5.0,56,0.00,,CLR,0.00,VWS V14.01,2013-07-26 17:17:00,
2013-07-26 13:22:00,73.9,59.6,30.12,East,79,1.0,5.0,61,0.00,,CLR,0.00,VWS V14.01,2013-07-26 17:22:00,
2013-07-26 13:27:00,74.0,57.3,30.12,SSW,194,1.0,5.0,56,0.00,,CLR,0.00,VWS V14.01,2013-07-26 17:27:00,
2013-07-26 13:30:00,74.1,58.9,30.12,West,263,1.0,5.0,59,0.00,,OVC,0.00,VWS V14.01,2013-07-26 17:30:00,
2013-07-26 13:32:00,74.1,58.9,30.12,West,262,2.0,5.0,59,0.00,,CLR,0.00,VWS V14.01,2013-07-26 17:32:00,
2013-07-26 13:37:00,73.8,56.6,30.11,WSW,238,3.0,3.0,55,0.00,,CLR,0.00,VWS V14.01,2013-07-26 17:37:00,
2013-07-26 13:42:00,73.5,57.3,30.11,North,356,2.0,4.0,57,0.00,,CLR,0.00,VWS V14.01,2013-07-26 17:42:00,
2013-07-26 13:47:00,73.4,56.8,30.12,NNW,333,1.0,4.0,56,0.00,,CLR,0.00,VWS V14.01,2013-07-26 17:47:00,
2013-07-26 13:52:00,73.1,57.0,30.11,West,267,1.0,4.0,57,0.00,,CLR,0.00,VWS V14.01,2013-07-26 17:52:00,
2013-07-26 13:57:00,73.1,58.9,30.11,WNW,295,0.0,7.0,61,0.00,,CLR,0.00,VWS V14.01,2013-07-26 17:57:00,
2013-07-26 14:00:00,72.7,57.6,30.11,SW,236,0.0,7.0,59,0.00,,OVC,0.00,VWS V14.01,2013-07-26 18:00:00,
2013-07-26 14:03:00,72.7,57.6,30.11,SW,236,0.0,7.0,59,0.00,,CLR,0.00,VWS V14.01,2013-07-26 18:03:00,
2013-07-26 14:08:00,72.6,57.0,30.11,NNE,12,1.0,4.0,58,0.00,,CLR,0.00,VWS V14.01,2013-07-26 18:08:00,
2013-07-26 14:13:00,72.4,56.8,30.11,East,89,3.0,4.0,58,0.00,,CLR,0.00,VWS V14.01,2013-07-26 18:13:00,
2013-07-26 14:18:00,72.7,57.6,30.10,NW,317,2.0,4.0,59,0.00,,CLR,0.00,VWS V14.01,2013-07-26 18:18:00,
2013-07-26 14:23:00,72.5,56.9,30.11,WNW,297,1.0,5.0,58,0.00,,CLR,0.00,VWS V14.01,2013-07-26 18:23:00,
2013-07-26 14:28:00,72.8,56.2,30.10,NE,41,1.0,5.0,56,0.00,,CLR,0.00,VWS V14.01,2013-07-26 18:28:00,
2013-07-26 14:30:00,72.8,57.2,30.10,WNW,290,1.0,5.0,58,0.00,,OVC,0.00,VWS V14.01,2013-07-26 18:30:00,
2013-07-26 14:33:00,72.8,57.2,30.10,North,356,1.0,1.0,58,0.00,,CLR,0.00,VWS V14.01,2013-07-26 18:33:00,
2013-07-26 14:38:00,72.7,57.6,30.10,SW,226,2.0,5.0,59,0.00,,CLR,0.00,VWS V14.01,2013-07-26 18:38:00,
2013-07-26 14:43:00,72.8,58.1,30.10,West,274,0.0,5.0,60,0.00,,CLR,0.00,VWS V14.01,2013-07-26 18:43:00,
2013-07-26 14:49:00,72.9,56.3,30.10,WNW,288,1.0,5.0,56,0.00,,CLR,0.00,VWS V14.01,2013-07-26 18:49:00,
2013-07-26 14:54:00,72.9,57.3,30.10,NW,315,1.0,7.0,58,0.00,,CLR,0.00,VWS V14.01,2013-07-26 18:54:00,
2013-07-26 14:59:00,72.8,56.7,30.10,North,6,0.0,7.0,57,0.00,,CLR,0.00,VWS V14.01,2013-07-26 18:59:00,
2013-07-26 15:00:00,72.7,56.1,30.10,NW,324,1.0,7.0,56,0.00,,OVC,0.00,VWS V14.01,2013-07-26 19:00:00,
2013-07-26 15:04:00,72.6,56.0,30.10,West,259,1.0,1.0,56,0.00,,CLR,0.00,VWS V14.01,2013-07-26 19:04:00,
2013-07-26 15:09:00,72.6,56.0,30.10,NNW,343,1.0,4.0,56,0.00,,CLR,0.00,VWS V14.01,2013-07-26 19:09:00,
2013-07-26 15:15:00,72.6,56.5,30.10,NNE,32,2.0,4.0,57,0.00,,CLR,0.00,VWS V14.01,2013-07-26 19:15:00,
2013-07-26 15:20:00,72.5,55.4,30.10,ESE,118,4.0,4.0,55,0.00,,CLR,0.00,VWS V14.01,2013-07-26 19:20:00,
2013-07-26 15:25:00,72.8,57.2,30.09,West,279,1.0,4.0,58,0.00,,CLR,0.00,VWS V14.01,2013-07-26 19:25:00,
2013-07-26 15:30:00,73.0,56.9,30.09,WNW,283,0.0,4.0,57,0.00,,CLR,0.00,VWS V14.01,2013-07-26 19:30:00,
2013-07-26 15:35:00,73.2,57.1,30.08,ESE,110,1.0,2.0,57,0.00,,CLR,0.00,VWS V14.01,2013-07-26 19:35:00,
2013-07-26 15:40:00,73.2,57.1,30.08,NW,319,2.0,4.0,57,0.00,,CLR,0.00,VWS V14.01,2013-07-26 19:40:00,
2013-07-26 15:42:00,73.2,56.1,30.08,North,359,1.0,4.0,55,0.00,,CLR,0.00,VWS V14.01,2013-07-26 19:42:00,
2013-07-26 15:47:00,73.1,55.5,30.08,SE,139,0.0,5.0,54,0.00,,CLR,0.00,VWS V14.01,2013-07-26 19:47:00,
2013-07-26 15:53:00,73.0,56.9,30.08,NE,36,1.0,5.0,57,0.00,,CLR,0.00,VWS V14.01,2013-07-26 19:53:00,
2013-07-26 15:58:00,73.1,56.0,30.08,NW,305,3.0,5.0,55,0.00,,CLR,0.00,VWS V14.01,2013-07-26 19:58:00,
2013-07-26 16:00:00,73.1,56.0,30.08,NW,310,0.0,5.0,55,0.00,,OVC,0.00,VWS V14.01,2013-07-26 20:00:00,
2013-07-26 16:03:00,73.1,56.0,30.08,NW,310,0.0,5.0,55,0.00,,CLR,0.00,VWS V14.01,2013-07-26 20:03:00,
2013-07-26 16:08:00,73.5,57.3,30.08,NNE,30,1.0,2.0,57,0.00,,CLR,0.00,VWS V14.01,2013-07-26 20:08:00,
2013-07-26 16:13:00,73.6,55.4,30.07,NNE,18,2.0,3.0,53,0.00,,CLR,0.00,VWS V14.01,2013-07-26 20:13:00,
2013-07-26 16:18:00,73.3,57.2,30.08,NNW,338,1.0,3.0,57,0.00,,CLR,0.00,VWS V14.01,2013-07-26 20:18:00,
2013-07-26 16:23:00,73.1,57.9,30.08,West,276,1.0,3.0,59,0.00,,CLR,0.00,VWS V14.01,2013-07-26 20:23:00,
2013-07-26 16:28:00,72.8,56.7,30.08,NW,325,1.0,3.0,57,0.00,,CLR,0.00,VWS V14.01,2013-07-26 20:28:00,
2013-07-26 16:30:00,73.0,56.9,30.08,NW,311,0.0,3.0,57,0.00,,OVC,0.00,VWS V14.01,2013-07-26 20:30:00,
2013-07-26 16:33:00,73.1,57.0,30.08,NW,311,0.0,0.0,57,0.00,,CLR,0.00,VWS V14.01,2013-07-26 20:33:00,
2013-07-26 16:38:00,73.7,57.0,30.08,North,351,0.0,4.0,56,0.00,,CLR,0.00,VWS V14.01,2013-07-26 20:38:00,
2013-07-26 16:43:00,73.9,55.7,30.07,NW,322,1.0,4.0,53,0.00,,CLR,0.00,VWS V14.01,2013-07-26 20:43:00,
2013-07-26 16:48:00,73.9,54.7,30.07,WNW,297,1.0,4.0,51,0.00,,CLR,0.00,VWS V14.01,2013-07-26 20:48:00,
2013-07-26 16:53:00,73.9,55.7,30.07,NNW,347,2.0,4.0,53,0.00,,CLR,0.00,VWS V14.01,2013-07-26 20:53:00,
2013-07-26 16:58:00,73.9,55.2,30.07,NW,316,1.0,4.0,52,0.00,,CLR,0.00,VWS V14.01,2013-07-26 20:58:00,
2013-07-26 17:00:00,73.6,54.9,30.07,NW,324,0.0,4.0,52,0.00,,OVC,0.00,VWS V14.01,2013-07-26 21:00:00,
2013-07-26 17:03:00,73.6,54.9,30.07,NW,323,1.0,1.0,52,0.00,,CLR,0.00,VWS V14.01,2013-07-26 21:03:00,
2013-07-26 17:08:00,73.7,55.0,30.07,WNW,293,1.0,2.0,52,0.00,,CLR,0.00,VWS V14.01,2013-07-26 21:08:00,
2013-07-26 17:13:00,73.8,57.6,30.07,West,267,1.0,2.0,57,0.00,,CLR,0.00,VWS V14.01,2013-07-26 21:13:00,
2013-07-26 17:18:00,73.8,56.6,30.07,ESE,104,1.0,2.0,55,0.00,,CLR,0.00,VWS V14.01,2013-07-26 21:18:00,
2013-07-26 17:23:00,73.7,56.0,30.07,NNW,346,0.0,2.0,54,0.00,,CLR,0.00,VWS V14.01,2013-07-26 21:23:00,
2013-07-26 17:29:00,73.7,56.5,30.07,NNW,333,1.0,2.0,55,0.00,,CLR,0.00,VWS V14.01,2013-07-26 21:29:00,
2013-07-26 17:30:00,73.7,55.5,30.06,NNW,333,0.0,2.0,53,0.00,,OVC,0.00,VWS V14.01,2013-07-26 21:30:00,
2013-07-26 17:34:00,73.7,56.5,30.06,NNW,335,1.0,1.0,55,0.00,,CLR,0.00,VWS V14.01,2013-07-26 21:34:00,
2013-07-26 17:39:00,73.8,55.6,30.06,NNW,335,0.0,1.0,53,0.00,,CLR,0.00,VWS V14.01,2013-07-26 21:39:00,
2013-07-26 17:44:00,73.7,54.5,30.06,North,358,0.0,2.0,51,0.00,,CLR,0.00,VWS V14.01,2013-07-26 21:44:00,
2013-07-26 17:49:00,73.7,55.5,30.06,SSE,157,1.0,2.0,53,0.00,,CLR,0.00,VWS V14.01,2013-07-26 21:49:00,
2013-07-26 17:54:00,73.8,56.6,30.06,SE,137,0.0,2.0,55,0.00,,CLR,0.00,VWS V14.01,2013-07-26 21:54:00,
2013-07-26 17:59:00,73.7,57.5,30.06,SE,134,0.0,2.0,57,0.00,,CLR,0.00,VWS V14.01,2013-07-26 21:59:00,
2013-07-26 18:00:00,73.6,56.5,30.06,SE,134,0.0,2.0,55,0.00,,OVC,0.00,VWS V14.01,2013-07-26 22:00:00,
2013-07-26 18:04:00,73.7,59.0,30.06,North,356,0.0,0.0,60,0.00,,CLR,0.00,VWS V14.01,2013-07-26 22:04:00,
2013-07-26 18:10:00,73.4,55.8,30.06,NNW,340,1.0,3.0,54,0.00,,CLR,0.00,VWS V14.01,2013-07-26 22:10:00,
2013-07-26 18:15:00,73.4,58.7,30.06,NNW,334,1.0,3.0,60,0.00,,CLR,0.00,VWS V14.01,2013-07-26 22:15:00,
2013-07-26 18:20:00,73.2,57.1,30.06,East,91,0.0,3.0,57,0.00,,CLR,0.00,VWS V14.01,2013-07-26 22:20:00,
2013-07-26 18:25:00,72.9,58.7,30.06,ENE,70,1.0,3.0,61,0.00,,CLR,0.00,VWS V14.01,2013-07-26 22:25:00,
2013-07-26 18:30:00,72.3,59.0,30.06,NE,39,1.0,3.0,63,0.00,,CLR,0.00,VWS V14.01,2013-07-26 22:30:00,
2013-07-26 18:35:00,71.9,56.8,30.06,NNE,27,1.0,1.0,59,0.00,,CLR,0.00,VWS V14.01,2013-07-26 22:35:00,
2013-07-26 18:40:00,72.2,58.9,30.06,NNE,27,0.0,1.0,63,0.00,,CLR,0.00,VWS V14.01,2013-07-26 22:40:00,
2013-07-26 18:45:00,71.9,59.1,30.06,NNE,15,0.0,1.0,64,0.00,,CLR,0.00,VWS V14.01,2013-07-26 22:45:00,
2013-07-26 18:50:00,71.5,59.1,30.06,NNE,13,0.0,1.0,65,0.00,,CLR,0.00,VWS V14.01,2013-07-26 22:50:00,
2013-07-26 18:55:00,71.3,59.4,30.06,NNE,15,0.0,1.0,66,0.00,,CLR,0.00,VWS V14.01,2013-07-26 22:55:00,
2013-07-26 19:00:00,71.1,58.3,30.05,NNE,15,0.0,1.0,64,0.00,,CLR,0.00,VWS V14.01,2013-07-26 23:00:00,
2013-07-26 19:05:00,70.9,59.4,30.06,NNE,15,0.0,0.0,67,0.00,,CLR,0.00,VWS V14.01,2013-07-26 23:05:00,
2013-07-26 19:10:00,70.5,59.0,30.06,NNE,15,0.0,0.0,67,0.00,,CLR,0.00,VWS V14.01,2013-07-26 23:10:00,
2013-07-26 19:15:00,70.1,58.7,30.06,NNE,15,0.0,0.0,67,0.00,,CLR,0.00,VWS V14.01,2013-07-26 23:15:00,
2013-07-26 19:21:00,69.7,59.1,30.06,NNE,15,0.0,0.0,69,0.00,,CLR,0.00,VWS V14.01,2013-07-26 23:21:00,
2013-07-26 19:26:00,69.5,58.5,30.06,NNW,348,0.0,3.0,68,0.00,,CLR,0.00,VWS V14.01,2013-07-26 23:26:00,
2013-07-26 19:30:00,69.3,59.1,30.06,North,349,0.0,3.0,70,0.00,,OVC,0.00,VWS V14.01,2013-07-26 23:30:00,
2013-07-26 19:31:00,69.4,59.2,30.06,NNW,348,0.0,3.0,70,0.00,,CLR,0.00,VWS V14.01,2013-07-26 23:31:00,
2013-07-26 19:36:00,69.2,59.4,30.06,North,350,0.0,1.0,71,0.00,,CLR,0.00,VWS V14.01,2013-07-26 23:36:00,
2013-07-26 19:41:00,68.9,59.5,30.06,North,350,1.0,1.0,72,0.00,,CLR,0.00,VWS V14.01,2013-07-26 23:41:00,
2013-07-26 19:46:00,68.4,59.4,30.06,North,350,1.0,1.0,73,0.00,,CLR,0.00,VWS V14.01,2013-07-26 23:46:00,
2013-07-26 19:51:00,68.0,59.4,30.06,North,352,0.0,1.0,74,0.00,,CLR,0.00,VWS V14.01,2013-07-26 23:51:00,
2013-07-26 19:56:00,67.8,59.6,30.06,North,352,0.0,1.0,75,0.00,,CLR,0.00,VWS V14.01,2013-07-26 23:56:00,
2013-07-26 20:00:00,67.7,59.9,30.06,North,351,0.0,1.0,76,0.00,,OVC,0.00,VWS V14.01,2013-07-27 00:00:00,
2013-07-26 20:01:00,67.7,59.9,30.06,North,352,0.0,1.0,76,0.00,,CLR,0.00,VWS V14.01,2013-07-27 00:01:00,
2013-07-26 20:06:00,67.7,60.2,30.06,North,349,0.0,1.0,77,0.00,,CLR,0.00,VWS V14.01,2013-07-27 00:06:00,
2013-07-26 20:12:00,67.8,60.3,30.06,North,352,0.0,1.0,77,0.00,,CLR,0.00,VWS V14.01,2013-07-27 00:12:00,
2013-07-26 20:17:00,67.6,60.5,30.06,North,351,0.0,1.0,78,0.00,,CLR,0.00,VWS V14.01,2013-07-27 00:17:00,
2013-07-26 20:22:00,67.3,60.6,30.06,North,352,0.0,1.0,79,0.00,,CLR,0.00,VWS V14.01,2013-07-27 00:22:00,
2013-07-26 20:27:00,67.0,60.6,30.06,North,351,0.0,1.0,80,0.00,,CLR,0.00,VWS V14.01,2013-07-27 00:27:00,
2013-07-26 20:30:00,66.7,60.3,30.06,North,352,0.0,1.0,80,0.00,,OVC,0.00,VWS V14.01,2013-07-27 00:30:00,
2013-07-26 20:32:00,66.7,60.3,30.06,North,351,0.0,1.0,80,0.00,,CLR,0.00,VWS V14.01,2013-07-27 00:32:00,
2013-07-26 20:37:00,66.4,60.4,30.06,North,352,0.0,1.0,81,0.00,,CLR,0.00,VWS V14.01,2013-07-27 00:37:00,
2013-07-26 20:42:00,66.2,60.2,30.06,North,352,0.0,1.0,81,0.00,,CLR,0.00,VWS V14.01,2013-07-27 00:42:00,
2013-07-26 20:47:00,66.0,60.0,30.06,North,352,0.0,1.0,81,0.00,,CLR,0.00,VWS V14.01,2013-07-27 00:47:00,
2013-07-26 20:52:00,65.8,60.2,30.06,North,351,0.0,1.0,82,0.00,,CLR,0.00,VWS V14.01,2013-07-27 00:52:00,
2013-07-26 20:58:00,65.5,60.2,30.06,North,352,0.0,1.0,83,0.00,,CLR,0.00,VWS V14.01,2013-07-27 00:58:00,
2013-07-26 21:00:00,65.2,60.2,30.07,North,352,0.0,1.0,84,0.00,,OVC,0.00,VWS V14.01,2013-07-27 01:00:00,
2013-07-26 21:03:00,65.2,60.2,30.07,North,352,0.0,1.0,84,0.00,,CLR,0.00,VWS V14.01,2013-07-27 01:03:00,
2013-07-26 21:08:00,64.9,60.0,30.07,North,352,0.0,0.0,84,0.00,,CLR,0.00,VWS V14.01,2013-07-27 01:08:00,
2013-07-26 21:13:00,64.6,60.0,30.07,North,352,0.0,0.0,85,0.00,,CLR,0.00,VWS V14.01,2013-07-27 01:13:00,
2013-07-26 21:18:00,64.4,59.8,30.07,North,352,0.0,1.0,85,0.00,,CLR,0.00,VWS V14.01,2013-07-27 01:18:00,
2013-07-26 21:23:00,64.2,59.9,30.07,North,351,0.0,1.0,86,0.00,,CLR,0.00,VWS V14.01,2013-07-27 01:23:00,
2013-07-26 21:28:00,64.0,59.7,30.07,North,352,0.0,1.0,86,0.00,,CLR,0.00,VWS V14.01,2013-07-27 01:28:00,
2013-07-26 21:30:00,63.8,59.9,30.06,North,352,0.0,1.0,87,0.00,,OVC,0.00,VWS V14.01,2013-07-27 01:30:00,
2013-07-26 21:33:00,63.8,59.9,30.06,North,352,0.0,0.0,87,0.00,,CLR,0.00,VWS V14.01,2013-07-27 01:33:00,
2013-07-26 21:38:00,63.6,59.7,30.07,North,352,0.0,0.0,87,0.00,,CLR,0.00,VWS V14.01,2013-07-27 01:38:00,
2013-07-26 21:44:00,63.5,59.6,30.07,North,351,0.0,0.0,87,0.00,,CLR,0.00,VWS V14.01,2013-07-27 01:44:00,
2013-07-26 21:49:00,63.3,59.7,30.07,North,352,0.0,0.0,88,0.00,,CLR,0.00,VWS V14.01,2013-07-27 01:49:00,
2013-07-26 21:54:00,63.1,59.5,30.07,North,352,0.0,0.0,88,0.00,,CLR,0.00,VWS V14.01,2013-07-27 01:54:00,
2013-07-26 21:59:00,63.0,59.4,30.07,North,352,0.0,0.0,88,0.00,,CLR,0.00,VWS V14.01,2013-07-27 01:59:00,
2013-07-26 22:00:00,63.0,59.4,30.07,North,352,0.0,0.0,88,0.00,,OVC,0.00,VWS V14.01,2013-07-27 02:00:00,
2013-07-26 22:04:00,63.0,59.4,30.07,North,351,0.0,0.0,88,0.00,,CLR,0.00,VWS V14.01,2013-07-27 02:04:00,
2013-07-26 22:09:00,62.8,59.2,30.07,North,351,0.0,0.0,88,0.00,,CLR,0.00,VWS V14.01,2013-07-27 02:09:00,
2013-07-26 22:14:00,62.6,59.0,30.07,North,351,0.0,0.0,88,0.00,,CLR,0.00,VWS V14.01,2013-07-27 02:14:00,
2013-07-26 22:19:00,62.4,59.1,30.07,North,352,0.0,0.0,89,0.00,,CLR,0.00,VWS V14.01,2013-07-27 02:19:00,
2013-07-26 22:25:00,62.1,58.8,30.07,North,352,0.0,0.0,89,0.00,,CLR,0.00,VWS V14.01,2013-07-27 02:25:00,
2013-07-26 22:30:00,61.7,58.7,30.07,North,352,0.0,0.0,90,0.00,,CLR,0.00,VWS V14.01,2013-07-27 02:30:00,
2013-07-26 22:35:00,61.3,58.3,30.07,North,351,0.0,0.0,90,0.00,,CLR,0.00,VWS V14.01,2013-07-27 02:35:00,
2013-07-26 22:40:00,61.0,58.0,30.07,North,352,0.0,0.0,90,0.00,,CLR,0.00,VWS V14.01,2013-07-27 02:40:00,
2013-07-26 22:45:00,60.7,58.1,30.07,North,352,0.0,0.0,91,0.00,,CLR,0.00,VWS V14.01,2013-07-27 02:45:00,
2013-07-26 22:50:00,60.4,57.8,30.07,North,352,0.0,0.0,91,0.00,,CLR,0.00,VWS V14.01,2013-07-27 02:50:00,
2013-07-26 22:55:00,60.3,58.0,30.07,North,351,0.0,0.0,92,0.00,,CLR,0.00,VWS V14.01,2013-07-27 02:55:00,
2013-07-26 23:00:00,60.2,58.2,30.07,North,352,0.0,0.0,93,0.00,,CLR,0.00,VWS V14.01,2013-07-27 03:00:00,
2013-07-26 23:05:00,60.1,58.1,30.07,North,351,0.0,0.0,93,0.00,,CLR,0.00,VWS V14.01,2013-07-27 03:05:00,
2013-07-26 23:10:00,60.0,58.0,30.07,North,351,0.0,0.0,93,0.00,,CLR,0.00,VWS V14.01,2013-07-27 03:10:00,
2013-07-26 23:16:00,59.9,57.9,30.07,North,352,0.0,0.0,93,0.00,,CLR,0.00,VWS V14.01,2013-07-27 03:16:00,
2013-07-26 23:21:00,59.8,57.8,30.07,North,351,0.0,0.0,93,0.00,,CLR,0.00,VWS V14.01,2013-07-27 03:21:00,
2013-07-26 23:26:00,59.6,57.9,30.07,North,352,0.0,0.0,94,0.00,,CLR,0.00,VWS V14.01,2013-07-27 03:26:00,
2013-07-26 23:30:00,59.4,57.7,30.07,North,351,0.0,0.0,94,0.00,,OVC,0.00,VWS V14.01,2013-07-27 03:30:00,
2013-07-26 23:31:00,59.5,57.8,30.07,North,352,0.0,0.0,94,0.00,,CLR,0.00,VWS V14.01,2013-07-27 03:31:00,
2013-07-26 23:36:00,59.3,57.6,30.07,North,352,0.0,0.0,94,0.00,,CLR,0.00,VWS V14.01,2013-07-27 03:36:00,
2013-07-26 23:41:00,59.1,57.4,30.07,North,351,0.0,0.0,94,0.00,,CLR,0.00,VWS V14.01,2013-07-27 03:41:00,
2013-07-26 23:47:00,59.1,57.4,30.07,North,352,0.0,0.0,94,0.00,,CLR,0.00,VWS V14.01,2013-07-27 03:47:00,
2013-07-26 23:52:00,59.0,57.6,30.07,North,351,0.0,0.0,95,0.00,,CLR,0.00,VWS V14.01,2013-07-27 03:52:00,
2013-07-26 23:57:00,58.8,57.4,30.07,North,352,0.0,0.0,95,0.00,,CLR,0.00,VWS V14.01,2013-07-27 03:57:00,